Time;durP1;ratioP1;P1;durP2;ratioP2;P2;SDS_P1;SDS_P2;PMS_P1;PMS_P2;Temp;Humidity;BMP_temperature;BMP_pressure;BME280_temperature;BME280_humidity;BME280_pressure;Samples;Min_cycle;Max_cycle;Signal;HPM_P1;HPM_P2
2023/04/28 00:00:30;;;;;;;8.27;6.27;;;6.30;99.90;;;;;;4858244;29;20876;-93
2023/04/28 00:02:56;;;;;;;8.10;6.57;;;6.30;99.90;;;;;;4860557;29;20507;-91
2023/04/28 00:05:21;;;;;;;8.77;6.65;;;6.30;99.90;;;;;;4857806;29;20452;-91
2023/04/28 00:07:47;;;;;;;7.63;6.80;;;6.20;99.90;;;;;;4860329;29;20420;-91
2023/04/28 00:10:13;;;;;;;8.52;7.03;;;6.20;99.90;;;;;;4858715;29;20436;-89
2023/04/28 00:12:39;;;;;;;9.07;7.13;;;6.30;99.90;;;;;;4859396;29;20421;-92
2023/04/28 00:15:06;;;;;;;7.80;6.72;;;6.20;99.90;;;;;;4859898;29;20504;-92
2023/04/28 00:17:31;;;;;;;8.40;7.20;;;6.30;99.90;;;;;;4857947;29;20469;-91
2023/04/28 00:19:57;;;;;;;8.80;6.90;;;6.30;99.90;;;;;;4860691;29;20420;-92
2023/04/28 00:22:23;;;;;;;9.02;7.75;;;6.30;99.90;;;;;;4857686;29;20436;-93
2023/04/28 00:24:49;;;;;;;8.27;7.43;;;6.30;99.90;;;;;;4860306;29;20424;-91
2023/04/28 00:27:14;;;;;;;8.17;7.30;;;6.30;99.90;;;;;;4857917;29;20420;-91
2023/04/28 00:29:40;;;;;;;9.15;7.40;;;6.30;99.90;;;;;;4859826;29;20459;-89
2023/04/28 00:32:06;;;;;;;9.88;7.57;;;6.50;99.90;;;;;;4858671;29;20429;-91
2023/04/28 00:34:32;;;;;;;10.30;7.73;;;6.30;99.90;;;;;;4858512;29;20428;-90
2023/04/28 00:36:58;;;;;;;8.63;7.72;;;6.20;99.90;;;;;;4859688;29;20419;-91
2023/04/28 00:39:25;;;;;;;8.63;7.65;;;6.50;99.90;;;;;;4857962;29;20503;-91
2023/04/28 00:41:51;;;;;;;8.52;7.65;;;6.20;99.90;;;;;;4859481;29;20421;-89
2023/04/28 00:44:16;;;;;;;9.07;7.65;;;6.00;99.90;;;;;;4857547;29;20424;-93
2023/04/28 00:46:42;;;;;;;11.02;8.32;;;6.50;99.90;;;;;;4859474;29;20503;-91
2023/04/28 00:49:09;;;;;;;8.88;7.82;;;6.20;99.90;;;;;;4858095;29;20456;-88
2023/04/28 00:51:35;;;;;;;8.75;7.82;;;6.30;99.90;;;;;;4858802;29;20428;-90
2023/04/28 00:54:00;;;;;;;9.70;8.60;;;6.20;99.90;;;;;;4858738;29;20934;-91
2023/04/28 00:56:29;;;;;;;9.80;8.77;;;6.20;99.90;;;;;;4857677;29;20421;-89
2023/04/28 00:58:55;;;;;;;10.18;8.65;;;6.20;99.90;;;;;;4859439;29;20938;-91
2023/04/28 01:01:21;;;;;;;9.68;8.68;;;6.20;99.90;;;;;;4857304;29;20466;-91
2023/04/28 01:03:48;;;;;;;10.50;9.30;;;6.20;99.90;;;;;;4859301;29;20432;-92
2023/04/28 01:06:15;;;;;;;10.45;9.27;;;6.20;99.90;;;;;;4857243;29;20428;-89
2023/04/28 01:08:41;;;;;;;11.50;9.23;;;6.20;99.90;;;;;;4859018;29;20961;-90
2023/04/28 01:11:09;;;;;;;11.13;10.05;;;6.10;99.90;;;;;;4842687;29;20428;-91
2023/04/28 01:13:35;;;;;;;11.30;10.10;;;6.10;99.90;;;;;;4857701;29;20431;-89
2023/04/28 01:16:01;;;;;;;12.50;10.07;;;6.10;99.90;;;;;;4859136;29;20409;-90
2023/04/28 01:18:27;;;;;;;14.18;10.18;;;6.10;99.90;;;;;;4856816;29;20568;-90
2023/04/28 01:20:53;;;;;;;12.07;10.35;;;6.10;99.90;;;;;;4859354;29;20480;-91
2023/04/28 01:23:18;;;;;;;12.60;10.40;;;6.00;99.90;;;;;;4856724;29;20449;-91
2023/04/28 01:25:44;;;;;;;11.70;10.00;;;6.00;99.90;;;;;;4859363;29;20416;-91
2023/04/28 01:28:11;;;;;;;12.90;10.27;;;6.00;99.90;;;;;;4857732;29;20445;-91
2023/04/28 01:30:37;;;;;;;11.52;9.85;;;6.00;99.90;;;;;;4857997;29;20419;-90
2023/04/28 01:33:03;;;;;;;10.50;9.40;;;6.00;99.90;;;;;;4858359;29;20836;-92
2023/04/28 01:35:29;;;;;;;11.60;10.27;;;6.20;99.90;;;;;;4857043;29;20469;-90
2023/04/28 01:37:55;;;;;;;14.45;10.15;;;6.00;99.90;;;;;;4858772;29;20856;-91
2023/04/28 01:40:21;;;;;;;11.85;10.15;;;5.80;99.90;;;;;;4841000;29;20432;-90
2023/04/28 01:42:47;;;;;;;10.48;9.38;;;6.20;99.90;;;;;;4858698;29;20448;-91
2023/04/28 01:45:12;;;;;;;9.97;8.93;;;6.00;99.90;;;;;;4856832;29;20413;-92
2023/04/28 01:47:38;;;;;;;11.73;9.30;;;6.00;99.90;;;;;;4858066;29;20424;-91
2023/04/28 01:50:05;;;;;;;12.13;9.30;;;6.00;99.90;;;;;;4857446;29;21566;-89
2023/04/28 01:52:30;;;;;;;10.20;8.70;;;6.00;99.90;;;;;;4856869;29;20443;-91
2023/04/28 01:54:56;;;;;;;9.95;8.73;;;6.00;99.90;;;;;;4857739;29;20421;-91
2023/04/28 01:57:22;;;;;;;10.27;8.83;;;6.00;99.90;;;;;;4856707;29;20511;-88
2023/04/28 01:59:47;;;;;;;10.07;8.93;;;6.00;99.90;;;;;;4858311;29;20421;-89
2023/04/28 02:02:13;;;;;;;10.02;8.00;;;6.00;99.90;;;;;;4855796;29;20429;-92
2023/04/28 02:04:40;;;;;;;9.10;7.90;;;5.80;99.90;;;;;;4857879;29;21918;-90
2023/04/28 02:07:06;;;;;;;9.53;8.00;;;5.90;99.90;;;;;;4841414;29;20472;-91
2023/04/28 02:09:32;;;;;;;8.97;7.87;;;6.10;99.90;;;;;;4856845;29;20448;-90
2023/04/28 02:11:59;;;;;;;9.50;8.07;;;5.90;99.90;;;;;;4857453;29;20462;-91
2023/04/28 02:14:25;;;;;;;10.30;8.48;;;6.40;99.90;;;;;;4856200;29;20428;-90
2023/04/28 02:16:51;;;;;;;9.63;8.63;;;5.80;99.90;;;;;;4857797;29;20436;-91
2023/04/28 02:19:17;;;;;;;8.77;7.80;;;5.80;99.90;;;;;;4855631;29;20416;-91
2023/04/28 02:21:42;;;;;;;10.40;8.38;;;5.80;99.90;;;;;;4858224;29;20417;-92
2023/04/28 02:24:08;;;;;;;9.97;8.20;;;5.80;99.90;;;;;;4856054;29;20492;-89
2023/04/28 02:26:34;;;;;;;9.10;7.90;;;5.80;99.90;;;;;;4857815;29;20806;-90
2023/04/28 02:29:00;;;;;;;9.73;8.10;;;5.80;99.90;;;;;;4856846;29;20449;-90
2023/04/28 02:31:26;;;;;;;10.63;8.65;;;5.90;99.90;;;;;;4856383;29;20420;-90
2023/04/28 02:33:52;;;;;;;10.80;8.73;;;6.10;99.90;;;;;;4857691;29;20500;-90
2023/04/28 02:36:18;;;;;;;9.57;8.25;;;5.90;99.90;;;;;;4855652;29;20453;-91
2023/04/28 02:38:43;;;;;;;10.73;8.98;;;5.90;99.90;;;;;;4842690;29;20416;-91
2023/04/28 02:41:10;;;;;;;10.60;8.85;;;6.00;99.90;;;;;;4855132;29;20497;-92
2023/04/28 02:43:36;;;;;;;10.75;9.00;;;6.00;99.90;;;;;;4857801;29;20428;-92
2023/04/28 02:46:03;;;;;;;10.80;9.30;;;6.00;99.90;;;;;;4855882;29;20412;-90
2023/04/28 02:48:29;;;;;;;12.20;9.07;;;6.00;99.90;;;;;;4857124;29;20803;-88
2023/04/28 02:50:55;;;;;;;13.00;9.88;;;6.00;99.90;;;;;;4857193;29;20498;-91
2023/04/28 02:53:21;;;;;;;11.57;10.25;;;6.10;99.90;;;;;;4855761;29;20511;-90
2023/04/28 02:55:47;;;;;;;12.68;10.68;;;6.30;99.90;;;;;;4857562;29;20412;-91
2023/04/28 02:58:13;;;;;;;12.23;10.30;;;6.40;99.90;;;;;;4855656;29;20480;-91
2023/04/28 03:00:39;;;;;;;12.68;11.02;;;6.20;99.90;;;;;;4857484;29;20429;-91
2023/04/28 03:03:05;;;;;;;13.45;10.85;;;6.40;99.90;;;;;;4855320;29;20428;-91
2023/04/28 03:05:30;;;;;;;14.32;11.85;;;6.20;99.90;;;;;;4859702;29;20480;-92
2023/04/28 03:07:56;;;;;;;14.20;11.90;;;6.20;99.90;;;;;;4860468;29;20443;-90
2023/04/28 03:10:22;;;;;;;13.77;11.82;;;6.30;99.90;;;;;;4859160;29;20425;-90
2023/04/28 03:12:47;;;;;;;14.52;12.18;;;6.20;99.90;;;;;;4860139;29;20928;-90
2023/04/28 03:15:13;;;;;;;15.75;12.85;;;6.40;99.90;;;;;;4858282;29;20524;-91
2023/04/28 03:17:41;;;;;;;15.10;12.03;;;6.30;99.90;;;;;;4860369;29;20485;-91
2023/04/28 03:20:07;;;;;;;14.18;12.68;;;6.60;99.90;;;;;;4842625;29;20420;-90
2023/04/28 03:22:33;;;;;;;15.00;12.98;;;6.30;99.90;;;;;;4845149;29;20496;-90
2023/04/28 03:24:59;;;;;;;16.88;13.35;;;6.80;99.90;;;;;;4842721;29;20450;-90
2023/04/28 03:27:25;;;;;;;17.00;13.20;;;6.30;99.90;;;;;;4844927;29;20424;-92
2023/04/28 03:29:51;;;;;;;19.27;13.60;;;6.40;99.90;;;;;;4845284;29;20429;-90
2023/04/28 03:32:16;;;;;;;16.33;13.20;;;6.30;99.90;;;;;;4844139;29;20413;-92
2023/04/28 03:34:42;;;;;;;16.13;13.60;;;6.30;99.90;;;;;;4845602;29;20480;-91
2023/04/28 03:37:07;;;;;;;16.47;13.73;;;6.30;99.90;;;;;;4843030;29;20459;-90
2023/04/28 03:39:33;;;;;;;15.20;13.57;;;6.30;99.90;;;;;;4845827;29;20460;-91
2023/04/28 03:41:59;;;;;;;16.63;14.07;;;6.30;99.90;;;;;;4843176;29;20432;-91
2023/04/28 03:44:25;;;;;;;16.98;14.40;;;6.30;99.90;;;;;;4845368;29;20786;-91
2023/04/28 03:46:51;;;;;;;18.35;14.70;;;6.40;99.90;;;;;;4844106;29;20440;-90
2023/04/28 03:49:17;;;;;;;19.02;14.48;;;6.40;99.90;;;;;;4859911;29;21041;-90
2023/04/28 03:51:42;;;;;;;18.17;15.27;;;6.50;99.90;;;;;;4844820;29;20423;-90
2023/04/28 03:54:08;;;;;;;18.00;15.40;;;6.60;99.90;;;;;;4843293;29;20637;-92
2023/04/28 03:56:34;;;;;;;20.40;16.33;;;6.60;99.90;;;;;;4845220;29;20452;-92
2023/04/28 03:58:59;;;;;;;18.45;15.23;;;6.50;99.90;;;;;;4843069;29;20532;-91
2023/04/28 04:01:25;;;;;;;18.87;15.50;;;6.50;99.90;;;;;;4860696;29;20900;-91
2023/04/28 04:03:51;;;;;;;18.50;15.10;;;6.50;99.90;;;;;;4843498;29;20535;-89
2023/04/28 04:06:17;;;;;;;19.00;15.85;;;6.50;99.90;;;;;;4844866;29;20767;-92
2023/04/28 04:08:42;;;;;;;19.52;15.90;;;6.50;99.90;;;;;;4844095;29;20445;-90
2023/04/28 04:11:08;;;;;;;19.80;15.73;;;6.60;99.90;;;;;;4843558;29;20437;-92
2023/04/28 04:13:34;;;;;;;21.50;16.97;;;6.60;99.90;;;;;;4859915;29;20520;-90
2023/04/28 04:15:59;;;;;;;19.20;15.82;;;6.60;99.90;;;;;;4842119;29;20445;-91
2023/04/28 04:18:26;;;;;;;19.45;16.23;;;6.60;99.90;;;;;;4844145;29;20439;-92
2023/04/28 04:20:54;;;;;;;18.80;16.50;;;6.70;99.90;;;;;;4842322;29;20429;-90
2023/04/28 04:23:20;;;;;;;20.33;17.20;;;6.70;99.90;;;;;;4845368;29;20787;-91
2023/04/28 04:25:46;;;;;;;19.50;16.50;;;6.70;99.90;;;;;;4843898;29;20515;-92
2023/04/28 04:28:12;;;;;;;19.17;16.43;;;6.70;99.90;;;;;;4843913;29;20447;-93
2023/04/28 04:30:37;;;;;;;23.03;17.13;;;6.70;99.90;;;;;;4859237;29;21111;-89
2023/04/28 04:33:03;;;;;;;21.55;16.60;;;6.70;99.90;;;;;;4842909;29;20425;-88
2023/04/28 04:35:28;;;;;;;19.13;16.20;;;6.80;99.90;;;;;;4844763;29;20844;-89
2023/04/28 04:37:54;;;;;;;20.10;15.93;;;6.80;99.90;;;;;;4842097;29;20550;-90
2023/04/28 04:40:20;;;;;;;20.35;16.42;;;6.80;99.90;;;;;;4845023;29;20465;-92
2023/04/28 04:42:45;;;;;;;20.00;17.43;;;7.00;99.90;;;;;;4842274;29;20464;-90
2023/04/28 04:45:11;;;;;;;20.40;16.50;;;6.80;99.90;;;;;;4843782;29;20417;-90
2023/04/28 04:47:37;;;;;;;19.25;16.42;;;6.80;99.90;;;;;;4858052;29;20427;-88
2023/04/28 04:50:04;;;;;;;19.48;16.67;;;7.00;99.90;;;;;;4841074;29;20455;-91
2023/04/28 04:52:30;;;;;;;19.57;15.73;;;6.80;99.90;;;;;;4843270;29;20421;-91
2023/04/28 04:54:56;;;;;;;20.93;16.40;;;7.10;99.90;;;;;;4842009;29;20851;-91
2023/04/28 04:57:21;;;;;;;20.73;16.48;;;7.10;99.90;;;;;;4842637;29;20429;-91
2023/04/28 04:59:47;;;;;;;18.55;15.73;;;7.20;99.90;;;;;;4836471;29;20512;-91
2023/04/28 05:02:13;;;;;;;20.13;16.30;;;6.90;99.90;;;;;;4843794;29;20941;-90
2023/04/28 05:04:39;;;;;;;20.02;15.60;;;6.90;99.90;;;;;;4842350;29;20429;-92
2023/04/28 05:07:04;;;;;;;19.63;16.27;;;6.90;99.90;;;;;;4843228;29;20432;-89
2023/04/28 05:09:30;;;;;;;19.67;16.05;;;7.00;99.90;;;;;;4842954;29;20444;-91
2023/04/28 05:11:56;;;;;;;20.58;16.85;;;7.00;99.90;;;;;;4841132;29;20413;-89
2023/04/28 05:14:22;;;;;;;20.02;16.20;;;7.10;99.90;;;;;;4858133;29;20774;-92
2023/04/28 05:16:48;;;;;;;18.52;16.17;;;7.10;99.90;;;;;;4840967;29;21031;-92
2023/04/28 05:19:14;;;;;;;18.37;15.80;;;7.50;99.90;;;;;;4859079;29;20431;-89
2023/04/28 05:21:40;;;;;;;19.52;15.68;;;7.20;99.90;;;;;;4857410;29;20421;-91
2023/04/28 05:24:05;;;;;;;18.93;15.17;;;7.40;99.90;;;;;;4843507;29;20420;-91
2023/04/28 05:26:31;;;;;;;17.57;14.80;;;7.30;99.90;;;;;;4842394;29;20432;-90
2023/04/28 05:28:57;;;;;;;20.05;15.13;;;7.10;99.90;;;;;;4842425;29;20448;-93
2023/04/28 05:31:22;;;;;;;18.23;15.23;;;7.30;99.90;;;;;;4843522;29;20420;-89
2023/04/28 05:33:48;;;;;;;17.97;14.93;;;7.30;99.90;;;;;;4842015;29;20429;-91
2023/04/28 05:36:15;;;;;;;17.73;15.05;;;7.40;99.90;;;;;;4843906;29;20424;-91
2023/04/28 05:38:42;;;;;;;18.30;14.60;;;7.40;99.90;;;;;;4856436;29;20497;-91
2023/04/28 05:41:08;;;;;;;16.38;14.50;;;7.50;99.90;;;;;;4859285;29;20767;-92
2023/04/28 05:43:33;;;;;;;17.40;14.10;;;7.70;99.90;;;;;;4841209;29;20423;-91
2023/04/28 05:46:00;;;;;;;17.42;14.38;;;7.60;99.90;;;;;;4842289;29;20424;-90
2023/04/28 05:48:25;;;;;;;16.35;13.77;;;7.80;99.90;;;;;;4842669;29;20942;-90
2023/04/28 05:50:51;;;;;;;16.50;14.70;;;7.60;99.90;;;;;;4857208;29;20428;-91
2023/04/28 05:53:17;;;;;;;17.65;14.27;;;7.70;99.90;;;;;;4843370;29;20832;-90
2023/04/28 05:55:43;;;;;;;16.70;13.60;;;7.60;99.90;;;;;;4855517;29;21040;-91
2023/04/28 05:58:09;;;;;;;16.48;13.48;;;7.80;99.90;;;;;;4858584;29;20437;-90
2023/04/28 06:00:34;;;;;;;18.05;13.70;;;7.80;99.90;;;;;;4840826;29;20428;-91
2023/04/28 06:03:00;;;;;;;15.55;13.23;;;7.90;99.90;;;;;;4858229;29;20421;-90
2023/04/28 06:05:26;;;;;;;17.58;13.95;;;7.90;99.90;;;;;;4857019;29;20419;-89
2023/04/28 06:07:52;;;;;;;16.77;14.23;;;7.90;99.90;;;;;;4857000;29;20454;-88
2023/04/28 06:10:19;;;;;;;16.80;13.60;;;8.00;99.90;;;;;;4851777;29;20430;-91
2023/04/28 06:12:45;;;;;;;17.50;14.20;;;8.00;99.90;;;;;;4838015;29;20520;-91
2023/04/28 06:15:10;;;;;;;16.07;13.87;;;8.00;99.90;;;;;;4840064;29;20482;-92
2023/04/28 06:17:38;;;;;;;17.58;14.40;;;8.10;99.90;;;;;;4837264;29;20418;-90
2023/04/28 06:20:04;;;;;;;16.97;14.30;;;8.10;99.90;;;;;;4839694;29;20497;-90
2023/04/28 06:22:30;;;;;;;16.10;13.35;;;8.20;99.90;;;;;;4838215;29;20970;-90
2023/04/28 06:24:55;;;;;;;17.35;13.65;;;8.20;99.90;;;;;;4839127;29;20462;-90
2023/04/28 06:27:21;;;;;;;16.97;14.30;;;8.30;99.90;;;;;;4841775;29;20432;-91
2023/04/28 06:29:47;;;;;;;16.55;13.75;;;8.40;99.90;;;;;;4840830;29;20448;-89
2023/04/28 06:32:12;;;;;;;15.97;13.90;;;8.50;99.90;;;;;;4842381;29;20417;-91
2023/04/28 06:34:38;;;;;;;14.67;12.90;;;8.50;99.90;;;;;;4856244;29;20906;-90
2023/04/28 06:37:03;;;;;;;15.40;13.68;;;8.60;99.90;;;;;;4842429;29;20417;-90
2023/04/28 06:39:29;;;;;;;16.83;13.50;;;8.60;99.90;;;;;;4840172;29;20484;-89
2023/04/28 06:41:55;;;;;;;16.93;13.87;;;8.70;99.90;;;;;;4842549;29;20429;-92
2023/04/28 06:44:20;;;;;;;15.13;12.88;;;8.70;99.90;;;;;;4856307;29;20417;-90
2023/04/28 06:46:46;;;;;;;16.35;13.57;;;8.80;99.90;;;;;;4841599;29;20417;-92
2023/04/28 06:49:12;;;;;;;15.33;13.30;;;8.80;99.90;;;;;;4842166;29;20480;-90
2023/04/28 06:51:38;;;;;;;15.80;14.00;;;8.90;99.90;;;;;;4840656;29;20439;-90
2023/04/28 06:54:04;;;;;;;17.20;13.00;;;9.10;99.90;;;;;;4842201;29;20922;-93
2023/04/28 06:56:29;;;;;;;15.77;12.73;;;8.80;99.90;;;;;;4855461;29;20408;-91
2023/04/28 06:58:58;;;;;;;15.45;13.25;;;9.00;99.90;;;;;;4842357;29;20409;-92
2023/04/28 07:01:24;;;;;;;14.00;12.52;;;9.00;99.90;;;;;;4855612;29;20425;-90
2023/04/28 07:03:50;;;;;;;15.87;13.53;;;8.70;99.90;;;;;;4842148;29;20918;-90
2023/04/28 07:06:16;;;;;;;15.80;12.90;;;8.70;99.90;;;;;;4841125;29;20429;-90
2023/04/28 07:08:42;;;;;;;14.38;12.82;;;8.70;99.90;;;;;;4840955;29;20452;-91
2023/04/28 07:11:08;;;;;;;14.40;12.18;;;9.00;99.90;;;;;;4841837;29;20930;-92
2023/04/28 07:13:34;;;;;;;15.27;13.37;;;8.70;99.90;;;;;;4839525;29;20440;-89
2023/04/28 07:16:00;;;;;;;14.77;13.17;;;8.80;99.90;;;;;;4842003;29;20420;-94
2023/04/28 07:18:26;;;;;;;14.32;12.82;;;8.80;99.90;;;;;;4855407;29;20417;-90
2023/04/28 07:20:51;;;;;;;16.03;12.83;;;8.90;99.90;;;;;;4841944;29;20493;-92
2023/04/28 07:23:17;;;;;;;14.97;13.40;;;9.00;99.90;;;;;;4856104;29;20517;-90
2023/04/28 07:25:43;;;;;;;14.90;13.15;;;9.10;99.90;;;;;;4841472;29;20416;-91
2023/04/28 07:28:08;;;;;;;16.97;13.20;;;9.20;99.90;;;;;;4841778;29;20444;-90
2023/04/28 07:30:34;;;;;;;14.60;13.03;;;9.30;99.90;;;;;;4839996;29;20918;-92
2023/04/28 07:33:01;;;;;;;15.45;13.40;;;9.30;99.90;;;;;;4842017;29;20486;-90
2023/04/28 07:35:27;;;;;;;15.32;12.63;;;9.40;99.90;;;;;;4840068;29;20423;-90
2023/04/28 07:37:53;;;;;;;15.00;12.65;;;9.50;99.90;;;;;;4841938;29;20839;-90
2023/04/28 07:40:19;;;;;;;15.77;12.90;;;9.40;99.90;;;;;;4855722;29;20432;-90
2023/04/28 07:42:45;;;;;;;15.13;12.77;;;9.40;99.90;;;;;;4841622;29;20468;-91
2023/04/28 07:45:11;;;;;;;14.98;13.15;;;9.40;99.90;;;;;;4841184;29;20421;-90
2023/04/28 07:47:38;;;;;;;15.30;12.47;;;9.50;99.90;;;;;;4840230;29;20435;-90
2023/04/28 07:50:05;;;;;;;14.82;13.20;;;9.40;99.90;;;;;;4841441;29;20802;-92
2023/04/28 07:52:32;;;;;;;14.68;13.07;;;9.40;99.90;;;;;;4843193;29;20421;-92
2023/04/28 07:54:58;;;;;;;14.60;12.40;;;9.30;99.90;;;;;;4845231;29;20423;-91
2023/04/28 07:57:24;;;;;;;14.45;12.95;;;9.30;99.90;;;;;;4843259;29;20432;-90
2023/04/28 07:59:50;;;;;;;15.70;13.77;;;9.30;99.90;;;;;;4845474;29;20425;-91
2023/04/28 08:02:16;;;;;;;15.20;13.60;;;9.20;99.90;;;;;;4844083;29;20914;-91
2023/04/28 08:04:41;;;;;;;17.25;14.65;;;9.20;99.90;;;;;;4844780;29;20412;-91
2023/04/28 08:07:08;;;;;;;15.90;14.30;;;9.20;99.90;;;;;;4844706;29;20452;-91
2023/04/28 08:09:34;;;;;;;16.05;14.30;;;9.20;99.90;;;;;;4842958;29;20969;-90
2023/04/28 08:12:00;;;;;;;16.30;14.57;;;9.20;99.90;;;;;;4845160;29;20413;-92
2023/04/28 08:14:26;;;;;;;18.17;14.25;;;9.20;99.90;;;;;;4858138;29;20437;-92
2023/04/28 08:16:52;;;;;;;17.52;15.70;;;9.30;99.90;;;;;;4845081;29;20481;-93
2023/04/28 08:19:18;;;;;;;18.38;16.02;;;9.20;99.90;;;;;;4843203;29;20421;-92
2023/04/28 08:21:44;;;;;;;16.98;15.13;;;9.30;99.90;;;;;;4844703;29;20416;-92
2023/04/28 08:24:09;;;;;;;18.73;15.53;;;9.60;99.90;;;;;;4859470;29;20439;-92
2023/04/28 08:26:36;;;;;;;17.90;15.67;;;9.50;99.90;;;;;;4843433;29;20421;-91
2023/04/28 08:29:02;;;;;;;19.27;15.88;;;9.60;99.90;;;;;;4844586;29;20440;-92
2023/04/28 08:31:27;;;;;;;19.52;16.38;;;9.80;99.90;;;;;;4858026;29;20515;-91
2023/04/28 08:33:53;;;;;;;17.97;16.03;;;10.00;99.90;;;;;;4844597;29;21017;-91
2023/04/28 08:36:20;;;;;;;16.47;14.67;;;10.30;99.90;;;;;;4842158;29;20432;-93
2023/04/28 08:38:46;;;;;;;15.80;14.18;;;10.50;99.90;;;;;;4844650;29;20421;-91
2023/04/28 08:41:14;;;;;;;17.70;15.27;;;10.70;99.90;;;;;;4858668;29;20440;-93
2023/04/28 08:43:41;;;;;;;16.38;14.13;;;10.80;99.90;;;;;;4844125;29;20849;-93
2023/04/28 08:46:08;;;;;;;16.70;13.70;;;10.90;99.90;;;;;;4844801;29;20416;-90
2023/04/28 08:48:39;;;;;;;15.95;13.95;;;11.00;99.90;;;;;;4842373;29;20441;-91
2023/04/28 08:51:06;;;;;;;15.38;13.77;;;11.10;99.90;;;;;;4844527;29;20938;-92
2023/04/28 08:53:36;;;;;;;15.00;13.30;;;11.30;99.90;;;;;;4842156;29;20423;-90
2023/04/28 08:56:05;;;;;;;15.25;13.32;;;11.30;99.90;;;;;;4844547;29;21007;-91
2023/04/28 08:58:31;;;;;;;14.60;13.10;;;11.20;99.90;;;;;;4858510;29;20416;-89
2023/04/28 09:00:57;;;;;;;14.77;13.20;;;11.20;99.90;;;;;;4843230;29;20464;-90
2023/04/28 09:03:22;;;;;;;15.00;13.43;;;11.00;99.90;;;;;;4843326;29;20456;-91
2023/04/28 09:05:48;;;;;;;14.52;13.02;;;11.00;99.90;;;;;;4842359;29;20954;-90
2023/04/28 09:08:14;;;;;;;15.68;12.77;;;10.90;99.90;;;;;;4844139;29;20455;-91
2023/04/28 09:10:40;;;;;;;15.40;13.53;;;11.30;99.90;;;;;;4841031;29;20497;-94
2023/04/28 09:13:06;;;;;;;15.40;13.37;;;11.20;99.90;;;;;;4843092;29;20424;-92
2023/04/28 09:15:34;;;;;;;16.60;14.48;;;11.20;99.90;;;;;;4842208;29;20768;-91
2023/04/28 09:18:05;;;;;;;15.30;13.48;;;11.30;99.90;;;;;;4843456;29;20512;-91
2023/04/28 09:20:33;;;;;;;14.85;13.35;;;11.90;99.90;;;;;;4843346;29;20433;-91
2023/04/28 09:23:14;;;;;;;15.10;13.30;;;11.50;99.90;;;;;;4857454;29;21113;-90
2023/04/28 09:25:39;;;;;;;15.05;13.48;;;11.60;99.90;;;;;;4843870;29;20859;-90
2023/04/28 09:28:22;;;;;;;14.98;13.40;;;11.70;99.90;;;;;;4841017;29;20594;-91
2023/04/28 09:30:47;;;;;;;16.58;13.93;;;11.90;99.90;;;;;;4843649;29;20426;-91
2023/04/28 09:33:14;;;;;;;14.65;13.13;;;12.10;99.90;;;;;;4857399;29;20511;-91
2023/04/28 09:35:42;;;;;;;14.23;12.73;;;12.30;99.90;;;;;;4842443;29;20905;-92
2023/04/28 09:38:08;;;;;;;15.35;13.77;;;12.30;99.30;;;;;;4843046;29;20429;-92
2023/04/28 09:40:48;;;;;;;15.75;14.15;;;12.30;99.90;;;;;;4841289;29;20416;-90
2023/04/28 09:43:29;;;;;;;15.27;13.63;;;12.40;99.90;;;;;;4843390;29;20421;-91
2023/04/28 09:45:57;;;;;;;15.38;13.75;;;12.60;99.90;;;;;;4856948;29;20417;-89
2023/04/28 09:48:39;;;;;;;14.95;13.43;;;12.60;99.90;;;;;;4843050;29;20449;-89
2023/04/28 09:51:06;;;;;;;15.25;13.52;;;13.00;99.90;;;;;;4843006;29;20437;-91
2023/04/28 09:53:33;;;;;;;14.88;13.27;;;12.80;99.30;;;;;;4840919;29;20425;-92
2023/04/28 09:56:02;;;;;;;15.82;14.18;;;12.80;97.80;;;;;;4843248;29;20474;-90
2023/04/28 09:58:29;;;;;;;16.27;14.10;;;12.80;99.90;;;;;;4841132;29;20431;-91
2023/04/28 10:01:00;;;;;;;15.20;13.68;;;13.00;99.90;;;;;;4843099;29;20445;-92
2023/04/28 10:03:27;;;;;;;16.33;14.13;;;13.40;99.90;;;;;;4841253;29;20471;-91
2023/04/28 10:05:53;;;;;;;15.75;14.02;;;13.80;99.90;;;;;;4842411;29;20433;-90
2023/04/28 10:08:21;;;;;;;15.48;13.85;;;14.20;99.90;;;;;;4842248;29;20444;-91
2023/04/28 10:10:53;;;;;;;14.93;13.32;;;14.60;98.80;;;;;;4840734;29;20436;-91
2023/04/28 10:13:20;;;;;;;14.85;13.35;;;14.70;95.10;;;;;;4842391;29;20425;-90
2023/04/28 10:15:47;;;;;;;14.35;12.95;;;14.70;91.60;;;;;;4839709;29;20450;-91
2023/04/28 10:18:14;;;;;;;14.27;12.85;;;14.60;88.50;;;;;;4842757;29;20825;-91
2023/04/28 10:20:45;;;;;;;15.07;13.57;;;14.40;88.40;;;;;;4840920;29;20512;-91
2023/04/28 10:23:42;;;;;;;15.30;13.68;;;14.20;94.00;;;;;;4842095;29;20512;-91
2023/04/28 10:26:17;;;;;;;16.13;14.52;;;14.00;98.60;;;;;;4858125;29;20456;-91
2023/04/28 10:28:50;;;;;;;16.80;15.00;;;14.20;99.90;;;;;;4855828;29;21223;-90
2023/04/28 10:31:20;;;;;;;17.38;15.65;;;13.80;99.90;;;;;;4842446;29;20781;-90
2023/04/28 10:33:46;;;;;;;16.23;14.57;;;13.80;99.90;;;;;;4840912;29;20471;-90
2023/04/28 10:36:51;;;;;;;16.88;15.07;;;14.00;99.90;;;;;;4841621;29;20480;-91
2023/04/28 10:39:17;;;;;;;16.67;15.02;;;13.80;99.90;;;;;;4842345;29;20428;-92
2023/04/28 10:41:46;;;;;;;16.80;14.83;;;13.70;99.90;;;;;;4839335;29;20431;-90
2023/04/28 10:44:30;;;;;;;16.48;14.77;;;13.70;99.90;;;;;;4842073;29;20473;-91
2023/04/28 10:47:05;;;;;;;17.43;15.63;;;13.70;99.90;;;;;;4840738;29;20432;-89
2023/04/28 10:50:02;;;;;;;16.38;14.88;;;13.80;99.90;;;;;;4840447;29;20440;-89
2023/04/28 10:52:47;;;;;;;16.40;14.70;;;13.80;99.90;;;;;;4842496;29;20433;-90
2023/04/28 10:55:32;;;;;;;15.48;13.88;;;13.90;99.90;;;;;;4840304;29;20428;-88
2023/04/28 10:58:18;;;;;;;14.75;13.30;;;14.00;99.90;;;;;;4856630;29;20456;-90
2023/04/28 11:00:46;;;;;;;15.35;13.77;;;13.90;99.90;;;;;;4857432;29;20432;-91
2023/04/28 11:03:41;;;;;;;15.00;13.50;;;13.80;99.90;;;;;;4840090;29;20420;-91
2023/04/28 11:06:27;;;;;;;15.63;14.02;;;13.70;99.90;;;;;;4841803;29;20421;-90
2023/04/28 11:09:13;;;;;;;16.13;14.47;;;13.60;99.90;;;;;;4841762;29;20456;-89
2023/04/28 11:11:59;;;;;;;15.85;14.25;;;13.50;99.90;;;;;;4794207;29;20520;-93
2023/04/28 11:14:25;;;;;;;15.77;13.98;;;13.50;99.90;;;;;;4841765;29;20785;-91
2023/04/28 11:16:50;;;;;;;16.10;14.50;;;13.40;99.90;;;;;;4840265;29;20891;-90
2023/04/28 11:19:27;;;;;;;16.48;14.77;;;13.20;99.90;;;;;;4857078;29;21106;-91
2023/04/28 11:21:56;;;;;;;17.35;15.63;;;13.20;99.90;;;;;;4841483;29;20451;-91
2023/04/28 11:24:24;;;;;;;16.27;14.68;;;13.30;99.90;;;;;;4839906;29;20477;-91
2023/04/28 11:26:51;;;;;;;16.45;14.75;;;13.30;99.90;;;;;;4844288;29;20428;-89
2023/04/28 11:29:17;;;;;;;15.73;14.23;;;13.30;99.90;;;;;;4843240;29;20978;-93
2023/04/28 11:31:50;;;;;;;15.55;13.98;;;13.30;99.90;;;;;;4845577;29;20432;-91
2023/04/28 11:34:23;;;;;;;16.58;15.00;;;13.50;99.90;;;;;;4857072;29;20429;-90
2023/04/28 11:36:48;;;;;;;17.27;15.57;;;13.30;99.90;;;;;;4853690;29;20926;-90
2023/04/28 11:39:15;;;;;;;16.07;14.47;;;13.20;99.90;;;;;;4856953;29;20435;-92
2023/04/28 11:41:42;;;;;;;16.35;14.65;;;13.20;99.90;;;;;;4857650;29;20985;-92
2023/04/28 11:44:16;;;;;;;16.23;14.63;;;13.20;99.90;;;;;;4859530;29;20429;-91
2023/04/28 11:46:50;;;;;;;15.65;13.80;;;13.20;99.90;;;;;;4842143;29;20424;-92
2023/04/28 11:49:17;;;;;;;16.10;14.50;;;13.30;99.90;;;;;;4844979;29;20444;-91
2023/04/28 11:51:48;;;;;;;17.98;16.17;;;13.20;99.90;;;;;;4843184;29;20444;-92
2023/04/28 11:54:23;;;;;;;17.67;15.88;;;13.30;99.90;;;;;;4844379;29;20440;-91
2023/04/28 11:56:49;;;;;;;18.15;16.25;;;13.30;99.90;;;;;;4844807;29;20782;-92
2023/04/28 11:59:15;;;;;;;17.58;15.88;;;13.60;99.90;;;;;;4858343;29;20503;-92
2023/04/28 12:01:58;;;;;;;18.77;16.77;;;13.40;99.90;;;;;;4845114;29;20978;-91
2023/04/28 12:04:30;;;;;;;18.67;16.93;;;13.40;99.90;;;;;;4842642;29;20416;-90
2023/04/28 12:07:05;;;;;;;17.30;15.60;;;13.50;99.90;;;;;;4859992;29;20460;-89
2023/04/28 12:09:32;;;;;;;17.90;16.20;;;13.60;99.90;;;;;;4843718;29;20957;-90
2023/04/28 12:12:01;;;;;;;17.90;16.00;;;13.60;99.90;;;;;;4872232;29;21002;-92
2023/04/28 12:14:27;;;;;;;18.85;17.05;;;13.50;99.90;;;;;;4877218;29;20420;-91
2023/04/28 12:16:52;;;;;;;20.02;17.95;;;13.60;99.90;;;;;;4876249;29;20426;-92
2023/04/28 12:19:19;;;;;;;18.88;17.08;;;13.70;99.90;;;;;;4878514;29;20423;-90
2023/04/28 12:21:59;;;;;;;19.42;17.63;;;13.80;99.90;;;;;;4876099;29;21231;-92
2023/04/28 12:24:25;;;;;;;18.53;16.63;;;14.00;99.90;;;;;;4877408;29;20462;-91
2023/04/28 12:26:51;;;;;;;19.08;17.08;;;14.30;99.90;;;;;;4877698;29;20423;-92
2023/04/28 12:29:37;;;;;;;16.70;15.10;;;14.60;99.90;;;;;;4876280;29;20438;-90
2023/04/28 12:32:07;;;;;;;17.10;15.57;;;15.20;99.90;;;;;;4878006;29;20991;-90
2023/04/28 12:34:33;;;;;;;17.70;15.87;;;15.70;99.90;;;;;;4865927;29;20452;-91
2023/04/28 12:37:00;;;;;;;16.20;14.73;;;16.00;99.90;;;;;;4843619;29;20495;-91